EDW40M GCLP-GCFV
Flight info
| Callsign | EDW40M |
|---|---|
| Flight time | 0h 24m |
| Altitude | 12000 |
| Route | KOPUD |
| Aircraft | A343/H-SDE2E3FGHIJ4J5M1RWXY/LB1D1 |
Departure
| Time | 2026-05-05 14:47 |
|---|---|
| Airport | Gran Canaria Airport (GCLP) |
Arrival
| Time | 2026-05-05 15:12 |
|---|---|
| Airport | Fuerteventura Airport (GCFV) |
| Time | Latitude | Longitude | Altitude | Speed | Heading |
|---|---|---|---|---|---|
| 2026-05-05 14:06 | 27.93447 | -15.38991 | 89 ft | 0 kts | 291° |
| 2026-05-05 14:35 | 27.93446 | -15.38990 | 89 ft | 1 kts | 291° |
| 2026-05-05 14:35 | 27.93438 | -15.38964 | 90 ft | 4 kts | 291° |
| 2026-05-05 14:36 | 27.93429 | -15.38941 | 90 ft | 4 kts | 284° |
| 2026-05-05 14:36 | 27.93431 | -15.38914 | 90 ft | 4 kts | 236° |
| 2026-05-05 14:36 | 27.93450 | -15.38894 | 90 ft | 4 kts | 205° |
| 2026-05-05 14:36 | 27.93473 | -15.38883 | 91 ft | 4 kts | 200° |
| 2026-05-05 14:37 | 27.93498 | -15.38872 | 90 ft | 2 kts | 201° |
| 2026-05-05 14:37 | 27.93500 | -15.38871 | 90 ft | 0 kts | 201° |
| 2026-05-05 14:41 | 27.93494 | -15.38872 | 87 ft | 2 kts | 187° |
| 2026-05-05 14:41 | 27.93457 | -15.38849 | 87 ft | 12 kts | 137° |
| 2026-05-05 14:42 | 27.93399 | -15.38771 | 85 ft | 9 kts | 159° |
| 2026-05-05 14:42 | 27.93337 | -15.38784 | 71 ft | 12 kts | 200° |
| 2026-05-05 14:42 | 27.93252 | -15.38822 | 74 ft | 14 kts | 201° |
| 2026-05-05 14:42 | 27.93154 | -15.38867 | 71 ft | 16 kts | 204° |
| 2026-05-05 14:43 | 27.93053 | -15.38917 | 86 ft | 16 kts | 204° |
| 2026-05-05 14:43 | 27.92947 | -15.38970 | 87 ft | 17 kts | 204° |
| 2026-05-05 14:43 | 27.92834 | -15.39018 | 91 ft | 17 kts | 199° |
| 2026-05-05 14:43 | 27.92718 | -15.39065 | 92 ft | 18 kts | 200° |
| 2026-05-05 14:44 | 27.92609 | -15.39116 | 97 ft | 17 kts | 202° |
| 2026-05-05 14:44 | 27.92498 | -15.39164 | 101 ft | 18 kts | 200° |
| 2026-05-05 14:44 | 27.92364 | -15.39220 | 102 ft | 22 kts | 200° |
| 2026-05-05 14:44 | 27.92203 | -15.39289 | 104 ft | 28 kts | 200° |
| 2026-05-05 14:45 | 27.92004 | -15.39301 | 96 ft | 28 kts | 172° |
| 2026-05-05 14:45 | 27.91935 | -15.39235 | 94 ft | 8 kts | 89° |
| 2026-05-05 14:45 | 27.91967 | -15.39201 | 89 ft | 8 kts | 32° |
| 2026-05-05 14:45 | 27.91984 | -15.39192 | 92 ft | 0 kts | 25° |
| 2026-05-05 14:46 | 27.92011 | -15.39178 | 92 ft | 21 kts | 24° |
| 2026-05-05 14:47 | 27.92355 | -15.39024 | 85 ft | 84 kts | 22° |
| 2026-05-05 14:47 | 27.93072 | -15.38707 | 63 ft | 135 kts | 21° |
| 2026-05-05 14:47 | 27.94038 | -15.38272 | 390 ft | 153 kts | 23° |
| 2026-05-05 14:47 | 27.95035 | -15.37795 | 945 ft | 158 kts | 21° |
| 2026-05-05 14:48 | 27.96061 | -15.37255 | 1409 ft | 174 kts | 26° |
| 2026-05-05 14:48 | 27.97206 | -15.36516 | 1687 ft | 206 kts | 28° |
| 2026-05-05 14:48 | 27.98592 | -15.35780 | 2153 ft | 232 kts | 22° |
| 2026-05-05 14:48 | 28.00122 | -15.35088 | 2979 ft | 241 kts | 21° |
| 2026-05-05 14:49 | 28.01710 | -15.34375 | 3820 ft | 252 kts | 21° |
| 2026-05-05 14:49 | 28.03375 | -15.33628 | 4636 ft | 262 kts | 21° |
| 2026-05-05 14:49 | 28.05093 | -15.32857 | 5396 ft | 270 kts | 20° |
| 2026-05-05 14:49 | 28.06864 | -15.32063 | 6124 ft | 277 kts | 20° |
| 2026-05-05 14:50 | 28.08653 | -15.31179 | 6963 ft | 285 kts | 26° |
| 2026-05-05 14:50 | 28.10077 | -15.29586 | 7763 ft | 295 kts | 61° |
| 2026-05-05 14:50 | 28.10587 | -15.27348 | 8587 ft | 299 kts | 93° |
| 2026-05-05 14:50 | 28.10233 | -15.25022 | 9367 ft | 304 kts | 104° |
| 2026-05-05 14:51 | 28.09805 | -15.22687 | 10135 ft | 310 kts | 107° |
| 2026-05-05 14:51 | 28.09296 | -15.20245 | 10576 ft | 330 kts | 105° |
| 2026-05-05 14:51 | 28.09008 | -15.17579 | 10891 ft | 354 kts | 94° |
| 2026-05-05 14:51 | 28.09089 | -15.14721 | 11296 ft | 371 kts | 88° |
| 2026-05-05 14:52 | 28.09318 | -15.11755 | 11782 ft | 384 kts | 87° |
| 2026-05-05 14:52 | 28.09569 | -15.08712 | 12001 ft | 389 kts | 87° |
| 2026-05-05 14:52 | 28.09820 | -15.05690 | 12043 ft | 382 kts | 87° |
| 2026-05-05 14:52 | 28.10068 | -15.02706 | 12041 ft | 380 kts | 87° |
| 2026-05-05 14:53 | 28.10315 | -14.99725 | 12043 ft | 380 kts | 87° |
| 2026-05-05 14:53 | 28.10561 | -14.96743 | 12042 ft | 380 kts | 87° |
| 2026-05-05 14:53 | 28.10807 | -14.93756 | 12041 ft | 380 kts | 87° |
| 2026-05-05 14:53 | 28.11051 | -14.90777 | 12039 ft | 381 kts | 87° |
| 2026-05-05 14:54 | 28.11296 | -14.87786 | 12036 ft | 381 kts | 87° |
| 2026-05-05 14:54 | 28.11541 | -14.84798 | 12038 ft | 381 kts | 87° |
| 2026-05-05 14:54 | 28.11785 | -14.81810 | 12036 ft | 381 kts | 87° |
| 2026-05-05 14:54 | 28.12029 | -14.78821 | 12035 ft | 381 kts | 87° |
| 2026-05-05 14:55 | 28.12272 | -14.75830 | 12035 ft | 381 kts | 87° |
| 2026-05-05 14:55 | 28.12514 | -14.72847 | 12034 ft | 380 kts | 87° |
| 2026-05-05 14:55 | 28.12756 | -14.69859 | 12034 ft | 381 kts | 87° |
| 2026-05-05 14:55 | 28.12998 | -14.66863 | 12035 ft | 381 kts | 87° |
| 2026-05-05 14:56 | 28.13225 | -14.63904 | 11913 ft | 373 kts | 88° |
| 2026-05-05 14:56 | 28.13383 | -14.61018 | 11662 ft | 359 kts | 89° |
| 2026-05-05 14:56 | 28.13522 | -14.58268 | 11418 ft | 341 kts | 89° |
| 2026-05-05 14:56 | 28.13655 | -14.55610 | 11193 ft | 336 kts | 89° |
| 2026-05-05 14:57 | 28.13785 | -14.52970 | 10853 ft | 334 kts | 89° |
| 2026-05-05 14:57 | 28.13913 | -14.50353 | 10432 ft | 332 kts | 89° |
| 2026-05-05 14:57 | 28.14041 | -14.47747 | 10023 ft | 330 kts | 89° |
| 2026-05-05 14:57 | 28.14166 | -14.45184 | 9580 ft | 321 kts | 89° |
| 2026-05-05 14:58 | 28.14289 | -14.42675 | 9146 ft | 317 kts | 89° |
| 2026-05-05 14:58 | 28.14409 | -14.40197 | 8692 ft | 312 kts | 89° |
| 2026-05-05 14:58 | 28.14525 | -14.37810 | 8256 ft | 297 kts | 88° |
| 2026-05-05 14:58 | 28.14636 | -14.35527 | 7834 ft | 284 kts | 88° |
| 2026-05-05 14:59 | 28.14741 | -14.33346 | 7441 ft | 271 kts | 88° |
| 2026-05-05 14:59 | 28.14842 | -14.31244 | 7072 ft | 263 kts | 88° |
| 2026-05-05 14:59 | 28.14939 | -14.29187 | 6720 ft | 261 kts | 88° |
| 2026-05-05 14:59 | 28.15035 | -14.27146 | 6355 ft | 258 kts | 87° |
| 2026-05-05 15:00 | 28.15131 | -14.25117 | 5970 ft | 259 kts | 87° |
| 2026-05-05 15:00 | 28.15195 | -14.23771 | 5705 ft | 257 kts | 87° |
| 2026-05-05 15:00 | 28.15320 | -14.21114 | 5227 ft | 248 kts | 86° |
| 2026-05-05 15:00 | 28.15411 | -14.19169 | 5017 ft | 247 kts | 86° |
| 2026-05-05 15:01 | 28.15516 | -14.17226 | 4970 ft | 246 kts | 83° |
| 2026-05-05 15:01 | 28.15974 | -14.15370 | 4972 ft | 245 kts | 68° |
| 2026-05-05 15:01 | 28.16541 | -14.13547 | 4974 ft | 246 kts | 71° |
| 2026-05-05 15:01 | 28.17067 | -14.11728 | 4975 ft | 245 kts | 71° |
| 2026-05-05 15:02 | 28.17738 | -14.09965 | 4970 ft | 244 kts | 55° |
| 2026-05-05 15:02 | 28.18823 | -14.08505 | 4971 ft | 242 kts | 43° |
| 2026-05-05 15:02 | 28.20077 | -14.07246 | 4817 ft | 239 kts | 39° |
| 2026-05-05 15:02 | 28.21361 | -14.06043 | 4607 ft | 239 kts | 38° |
| 2026-05-05 15:03 | 28.22656 | -14.04886 | 4417 ft | 236 kts | 37° |
| 2026-05-05 15:03 | 28.23936 | -14.03751 | 4250 ft | 231 kts | 37° |
| 2026-05-05 15:03 | 28.25152 | -14.02579 | 3961 ft | 230 kts | 47° |
| 2026-05-05 15:03 | 28.25835 | -14.00958 | 3679 ft | 231 kts | 80° |
| 2026-05-05 15:04 | 28.25645 | -13.99165 | 3486 ft | 232 kts | 111° |
| 2026-05-05 15:04 | 28.24741 | -13.97645 | 3291 ft | 232 kts | 129° |
| 2026-05-05 15:04 | 28.23676 | -13.96294 | 3201 ft | 227 kts | 127° |
| 2026-05-05 15:04 | 28.22842 | -13.94805 | 3137 ft | 220 kts | 113° |
| 2026-05-05 15:05 | 28.21899 | -13.91615 | 2827 ft | 207 kts | 96° |
| 2026-05-05 15:05 | 28.21791 | -13.90029 | 2683 ft | 198 kts | 81° |
| 2026-05-05 15:05 | 28.22119 | -13.88573 | 2531 ft | 186 kts | 56° |
| 2026-05-05 15:06 | 28.22948 | -13.87531 | 2478 ft | 171 kts | 33° |
| 2026-05-05 15:06 | 28.23980 | -13.87080 | 2479 ft | 152 kts | 8° |
| 2026-05-05 15:06 | 28.25025 | -13.86994 | 2466 ft | 152 kts | 3° |
| 2026-05-05 15:06 | 28.26088 | -13.87014 | 2469 ft | 152 kts | 360° |
| 2026-05-05 15:07 | 28.27148 | -13.87036 | 2465 ft | 153 kts | 4° |
| 2026-05-05 15:07 | 28.28215 | -13.86960 | 2465 ft | 155 kts | 6° |
| 2026-05-05 15:07 | 28.29295 | -13.86874 | 2469 ft | 155 kts | 5° |
| 2026-05-05 15:07 | 28.30371 | -13.86825 | 2466 ft | 154 kts | 5° |
| 2026-05-05 15:08 | 28.31447 | -13.86788 | 2468 ft | 156 kts | 2° |
| 2026-05-05 15:08 | 28.32528 | -13.86772 | 2389 ft | 154 kts | 4° |
| 2026-05-05 15:08 | 28.33599 | -13.86738 | 2114 ft | 153 kts | 3° |
| 2026-05-05 15:08 | 28.34636 | -13.86702 | 1888 ft | 143 kts | 2° |
| 2026-05-05 15:09 | 28.35581 | -13.86664 | 1687 ft | 131 kts | 1° |
| 2026-05-05 15:09 | 28.36492 | -13.86641 | 1510 ft | 132 kts | 360° |
| 2026-05-05 15:09 | 28.37413 | -13.86641 | 1349 ft | 133 kts | 2° |
| 2026-05-05 15:09 | 28.38341 | -13.86594 | 1224 ft | 134 kts | 357° |
| 2026-05-05 15:10 | 28.39277 | -13.86530 | 1048 ft | 136 kts | 2° |
| 2026-05-05 15:10 | 28.40188 | -13.86478 | 826 ft | 132 kts | 360° |
| 2026-05-05 15:10 | 28.41106 | -13.86506 | 659 ft | 131 kts | 6° |
| 2026-05-05 15:10 | 28.42013 | -13.86444 | 484 ft | 132 kts | 6° |
| 2026-05-05 15:11 | 28.42935 | -13.86434 | 319 ft | 133 kts | 6° |
| 2026-05-05 15:11 | 28.43845 | -13.86416 | 139 ft | 127 kts | 2° |
| 2026-05-05 15:11 | 28.44709 | -13.86400 | 67 ft | 116 kts | 2° |
| 2026-05-05 15:11 | 28.45383 | -13.86372 | 85 ft | 80 kts | 1° |
| 2026-05-05 15:12 | 28.45793 | -13.86360 | 97 ft | 42 kts | 359° |
| 2026-05-05 15:12 | 28.45978 | -13.86385 | 97 ft | 38 kts | 343° |
| 2026-05-05 15:12 | 28.46133 | -13.86497 | 103 ft | 0 kts | 276° |
| 2026-05-05 15:14 | 28.46108 | -13.86526 | 105 ft | 12 kts | 212° |
| 2026-05-05 15:14 | 28.45983 | -13.86546 | 102 ft | 22 kts | 182° |
| 2026-05-05 15:14 | 28.45828 | -13.86552 | 104 ft | 23 kts | 181° |
| 2026-05-05 15:15 | 28.45660 | -13.86557 | 102 ft | 25 kts | 181° |
| 2026-05-05 15:15 | 28.45487 | -13.86563 | 100 ft | 26 kts | 181° |
| 2026-05-05 15:15 | 28.45378 | -13.86628 | 103 ft | 16 kts | 253° |
| 2026-05-05 15:15 | 28.45341 | -13.86722 | 105 ft | 12 kts | 203° |
| 2026-05-05 15:16 | 28.45282 | -13.86756 | 106 ft | 5 kts | 246° |
| 2026-05-05 15:16 | 28.45271 | -13.86799 | 103 ft | 7 kts | 262° |
| 2026-05-05 15:16 | 28.45271 | -13.86826 | 103 ft | 1 kts | 270° |
| 2026-05-05 15:16 | 28.45271 | -13.86833 | 103 ft | 0 kts | 271° |